Eagle Lake, Florida
Current Conditions -  °F | °C
As of 10:55 PM on Thursday 18 Dec 2014 (Local Time) from KBOW Reporting Station
Clear Clear  
Wind Chill: 54°   Ceiling: Unl
Heat Index: 54°   Visibility: 10mi
Dew Point: 48°   Wind: 3mph
Humidity: 82%   Direction: 330°NNW
Pressure: 30.15"   Gusts: NA
Location:  27.98°N, 81.76°W
Report Text: KBOW 190355Z AUTO 33003KT 10SM CLR 12/09 A3015 RMK AO2
Loading
Personal Weather Stations






























Interactive Weather Map New forecast layout! Learn more

10-Day Weather Forecast

Advertisements
Track Severe Weather on mobile